Terminal Aerodrome Forecast
Issued by NWS Dallas/Fort Worth, TX

Home | Current Version | Previous Version | Text Only | Print | Product List | Glossary On
Versions: 1 2 3 4 5 6 7 8 9 10 11 12 13 14 15 16 17 18 19 20 21 22 23 24 25 26 27
000
FTUS44 KFWD 011100
TAFDFW
TAF
KDFW 011135Z 0112/0218 01008KT P6SM SCT008 OVC012
      TEMPO 0112/0115 BKN008
     FM011700 02008KT P6SM OVC020
     FM012100 03008KT P6SM BKN045
     FM020200 06008KT P6SM SCT250=

USA.gov is the U.S. government's official web portal to all federal, state and local government web resources and services.